createdAt,value
2023-05-05T00:02:26.341Z,101517.25
2023-05-05T00:05:39.553Z,101522.53
2023-05-05T00:08:10.515Z,101523.38
2023-05-05T00:10:36.954Z,101523.88
2023-05-05T00:13:07.877Z,101518.59
2023-05-05T00:15:45.393Z,101524.03
2023-05-05T00:18:14.618Z,101525.88
2023-05-05T00:20:46.056Z,101523.31
2023-05-05T00:23:13.703Z,101523.31
2023-05-05T00:25:43.869Z,101516.50
2023-05-05T00:28:17.000Z,101517.53
2023-05-05T00:30:43.881Z,101513.28
2023-05-05T00:33:11.253Z,101509.34
2023-05-05T00:35:38.138Z,101502.19
2023-05-05T00:38:05.724Z,101504.41
2023-05-05T00:40:32.737Z,101501.31
2023-05-05T00:43:06.919Z,101507.81
2023-05-05T00:45:37.547Z,101513.78
2023-05-05T00:48:05.350Z,101529.03
2023-05-05T00:50:38.575Z,101532.78
2023-05-05T00:53:10.497Z,101533.09
2023-05-05T00:58:20.144Z,101530.22
2023-05-05T01:00:47.558Z,101525.13
2023-05-05T01:03:19.104Z,101521.84
2023-05-05T01:06:14.265Z,101517.44
2023-05-05T01:09:02.941Z,101523.06
2023-05-05T01:11:51.820Z,101518.63
2023-05-05T01:14:35.207Z,101511.34
2023-05-05T01:17:24.766Z,101514.41
2023-05-05T01:20:12.932Z,101513.78
2023-05-05T01:22:52.158Z,101518.03
2023-05-05T01:26:04.385Z,101524.31
2023-05-05T01:28:58.303Z,101521.28
2023-05-05T01:31:54.948Z,101530.09
2023-05-05T01:34:29.885Z,101539.63
2023-05-05T01:37:09.174Z,101543.91
2023-05-05T01:39:37.682Z,101541.69
2023-05-05T01:42:23.294Z,101547.84
2023-05-05T01:44:52.691Z,101535.25
2023-05-05T01:47:24.785Z,101541.38
2023-05-05T01:55:24.440Z,101548.00
2023-05-05T01:57:56.907Z,101556.00
2023-05-05T02:00:25.203Z,101572.16
2023-05-05T02:08:23.414Z,101559.59
2023-05-05T02:11:15.440Z,101547.66
2023-05-05T02:13:50.457Z,101524.91
2023-05-05T02:16:18.992Z,101518.13
2023-05-05T02:18:55.756Z,101504.50
2023-05-05T02:21:23.628Z,101499.25
2023-05-05T02:23:52.146Z,101520.16
2023-05-05T02:26:21.948Z,101539.34
2023-05-05T02:28:59.832Z,101545.63
2023-05-05T02:31:39.017Z,101537.78
2023-05-05T02:34:08.004Z,101538.63
2023-05-05T02:36:39.888Z,101536.09
2023-05-05T02:39:14.358Z,101547.28
2023-05-05T02:41:43.347Z,101533.19
2023-05-05T02:44:13.526Z,101539.97
2023-05-05T02:46:41.761Z,101538.44
2023-05-05T02:49:12.424Z,101537.75
2023-05-05T02:51:39.233Z,101531.59
2023-05-05T02:54:06.732Z,101529.06
2023-05-05T02:56:52.216Z,101532.59
2023-05-05T02:59:47.768Z,101529.22
2023-05-05T03:02:42.292Z,101535.28
2023-05-05T03:05:47.832Z,101532.38
2023-05-05T03:08:37.886Z,101540.66
2023-05-05T03:11:19.571Z,101541.28
2023-05-05T03:13:51.472Z,101543.63
2023-05-05T03:16:20.668Z,101541.06
2023-05-05T03:18:57.277Z,101552.91
2023-05-05T03:21:25.546Z,101548.50
2023-05-05T03:24:15.744Z,101552.53
2023-05-05T03:26:44.880Z,101559.13
2023-05-05T03:29:15.364Z,101564.72
2023-05-05T03:31:48.170Z,101564.66
2023-05-05T03:34:15.026Z,101571.75
2023-05-05T03:36:41.539Z,101567.34
2023-05-05T03:39:46.378Z,101558.63
2023-05-05T03:42:34.434Z,101552.16
2023-05-05T03:45:02.677Z,101551.31
2023-05-05T03:47:29.464Z,101555.22
2023-05-05T03:49:58.048Z,101559.09
2023-05-05T03:52:24.876Z,101565.00
2023-05-05T03:54:52.569Z,101568.88
2023-05-05T03:57:23.960Z,101576.47
2023-05-05T03:59:57.891Z,101593.38
2023-05-05T04:02:28.029Z,101585.38
2023-05-05T04:04:58.024Z,101591.84
2023-05-05T04:07:40.048Z,101596.41
2023-05-05T04:13:11.429Z,101608.41
2023-05-05T04:15:41.103Z,101612.31
2023-05-05T04:18:09.319Z,101609.91
2023-05-05T04:20:36.915Z,101618.06
2023-05-05T04:23:12.393Z,101617.34
2023-05-05T04:25:47.106Z,101630.50
2023-05-05T04:28:14.031Z,101626.25
2023-05-05T04:30:46.678Z,101624.41
2023-05-05T04:33:20.466Z,101635.06
2023-05-05T04:35:50.511Z,101641.69
2023-05-05T04:38:21.973Z,101645.53
2023-05-05T04:40:53.648Z,101648.25
2023-05-05T04:43:24.143Z,101652.81
2023-05-05T04:46:06.910Z,101644.28
2023-05-05T04:49:05.002Z,101649.03
2023-05-05T04:51:33.740Z,101648.16
2023-05-05T04:54:04.462Z,101646.84
2023-05-05T04:56:32.368Z,101651.28
2023-05-05T04:59:03.467Z,101647.84
2023-05-05T05:01:35.721Z,101656.84
2023-05-05T05:04:06.687Z,101663.84
2023-05-05T05:06:37.041Z,101664.53
2023-05-05T05:09:05.809Z,101661.66
2023-05-05T05:11:35.942Z,101672.53
2023-05-05T05:14:05.780Z,101671.34
2023-05-05T05:16:39.587Z,101664.78
2023-05-05T05:19:06.384Z,101667.34
2023-05-05T05:21:33.657Z,101666.19
2023-05-05T05:24:03.160Z,101668.44
2023-05-05T05:26:34.645Z,101674.94
2023-05-05T05:29:06.984Z,101679.63
2023-05-05T05:31:37.938Z,101670.28
2023-05-05T05:34:12.928Z,101682.88
2023-05-05T05:36:44.996Z,101686.50
2023-05-05T05:39:16.139Z,101673.22
2023-05-05T05:41:46.171Z,101682.75
2023-05-05T05:44:38.382Z,101679.56
2023-05-05T05:47:12.259Z,101693.53
2023-05-05T05:49:40.487Z,101699.50
2023-05-05T05:52:09.958Z,101696.47
2023-05-05T05:54:41.689Z,101692.81
2023-05-05T05:57:34.703Z,101698.81
2023-05-05T06:00:08.115Z,101696.28
2023-05-05T06:02:37.259Z,101693.81
2023-05-05T06:05:14.823Z,101695.03
2023-05-05T06:07:42.938Z,101694.38
2023-05-05T06:10:25.593Z,101699.19
2023-05-05T06:12:54.066Z,101686.84
2023-05-05T06:15:25.990Z,101686.88
2023-05-05T06:18:00.113Z,101676.53
2023-05-05T06:20:30.454Z,101682.72
2023-05-05T06:23:01.804Z,101676.47
2023-05-05T06:25:29.335Z,101683.66
2023-05-05T06:27:59.577Z,101689.34
2023-05-05T06:30:32.387Z,101699.25
2023-05-05T06:32:59.428Z,101697.41
2023-05-05T06:35:28.116Z,101699.31
2023-05-05T06:37:54.715Z,101704.94
2023-05-05T06:40:27.251Z,101700.72
2023-05-05T06:42:57.903Z,101710.25
2023-05-05T06:45:32.423Z,101706.69
2023-05-05T06:48:05.243Z,101707.75
2023-05-05T06:50:34.753Z,101712.38
2023-05-05T06:53:11.656Z,101709.34
2023-05-05T06:55:48.426Z,101709.34
2023-05-05T06:58:22.183Z,101711.72
2023-05-05T07:00:51.650Z,101710.06
2023-05-05T07:03:21.031Z,101713.78
2023-05-05T07:05:53.899Z,101725.75
2023-05-05T07:08:23.581Z,101731.38
2023-05-05T07:10:55.256Z,101730.03
2023-05-05T07:16:13.776Z,101731.25
2023-05-05T07:18:44.074Z,101721.84
2023-05-05T07:21:11.029Z,101725.63
2023-05-05T07:24:03.242Z,101723.72
2023-05-05T07:26:31.157Z,101722.38
2023-05-05T07:28:59.364Z,101737.03
2023-05-05T07:31:30.210Z,101728.66
2023-05-05T07:33:58.083Z,101733.28
2023-05-05T07:36:27.961Z,101736.00
2023-05-05T07:38:59.346Z,101730.38
2023-05-05T07:41:28.663Z,101729.66
2023-05-05T07:43:55.797Z,101736.16
2023-05-05T07:46:28.193Z,101729.13
2023-05-05T07:48:55.320Z,101724.84
2023-05-05T07:51:27.152Z,101733.53
2023-05-05T07:53:56.675Z,101735.56
2023-05-05T07:56:23.701Z,101739.69
2023-05-05T07:58:55.664Z,101732.00
2023-05-05T08:01:26.366Z,101735.16
2023-05-05T08:03:55.788Z,101724.25
2023-05-05T08:06:24.901Z,101727.91
2023-05-05T08:08:57.152Z,101726.50
2023-05-05T08:11:29.470Z,101729.50
2023-05-05T08:13:59.373Z,101733.88
2023-05-05T08:16:26.181Z,101737.34
2023-05-05T08:19:28.787Z,101734.94
2023-05-05T08:21:58.876Z,101731.09
2023-05-05T08:24:39.313Z,101727.59
2023-05-05T08:32:40.390Z,101729.16
2023-05-05T08:35:09.325Z,101723.97
2023-05-05T08:37:36.452Z,101733.56
2023-05-05T08:40:11.183Z,101746.44
2023-05-05T08:42:39.440Z,101741.72
2023-05-05T08:45:16.669Z,101753.38
2023-05-05T08:47:44.689Z,101746.88
2023-05-05T08:50:12.616Z,101753.00
2023-05-05T08:52:42.060Z,101753.53
2023-05-05T08:55:21.224Z,101750.81
2023-05-05T08:57:58.466Z,101759.16
2023-05-05T09:00:30.327Z,101757.75
2023-05-05T09:03:03.388Z,101752.19
2023-05-05T09:05:34.967Z,101756.25
2023-05-05T09:08:08.284Z,101743.34
2023-05-05T09:10:36.686Z,101762.84
2023-05-05T09:13:07.351Z,101751.41
2023-05-05T09:15:37.944Z,101738.78
2023-05-05T09:18:09.724Z,101752.75
2023-05-05T09:20:40.268Z,101747.84
2023-05-05T09:23:20.894Z,101757.28
2023-05-05T09:26:07.295Z,101744.25
2023-05-05T09:28:35.106Z,101746.81
2023-05-05T09:31:19.956Z,101745.69
2023-05-05T09:33:51.858Z,101747.88
2023-05-05T09:36:18.781Z,101754.22
2023-05-05T09:39:09.228Z,101748.25
2023-05-05T09:41:41.459Z,101751.72
2023-05-05T09:44:09.762Z,101748.50
2023-05-05T09:47:07.234Z,101745.47
2023-05-05T09:49:46.246Z,101748.59
2023-05-05T09:52:20.097Z,101746.09
2023-05-05T09:54:59.251Z,101736.91
2023-05-05T09:57:35.191Z,101740.13
2023-05-05T10:00:15.008Z,101735.16
2023-05-05T10:02:43.508Z,101742.13
2023-05-05T10:05:17.889Z,101737.34
2023-05-05T10:07:48.265Z,101745.84
2023-05-05T10:10:17.217Z,101744.69
2023-05-05T10:12:52.785Z,101765.03
2023-05-05T10:15:25.482Z,101784.03
2023-05-05T10:18:07.074Z,101788.59
2023-05-05T10:20:45.854Z,101808.91
2023-05-05T10:23:15.792Z,101799.03
2023-05-05T10:25:50.806Z,101787.19
2023-05-05T10:28:27.502Z,101794.59
2023-05-05T10:31:25.197Z,101796.88
2023-05-05T10:48:38.227Z,101791.84
2023-05-05T12:05:43.919Z,101834.06
2023-05-05T12:21:21.686Z,101818.63
2023-05-05T12:24:38.806Z,101828.78
2023-05-05T12:27:09.627Z,101821.09
2023-05-05T12:29:36.427Z,101830.81
2023-05-05T12:32:04.371Z,101828.78
2023-05-05T12:34:35.780Z,101834.91
2023-05-05T12:37:21.765Z,101820.47
2023-05-05T12:39:52.233Z,101819.63
2023-05-05T12:46:18.119Z,101814.03
2023-05-05T12:48:47.958Z,101815.38
2023-05-05T12:51:28.926Z,101812.78
2023-05-05T12:54:27.679Z,101814.50
2023-05-05T12:57:10.538Z,101813.31
2023-05-05T12:59:37.024Z,101806.72
2023-05-05T13:33:03.588Z,101819.84
2023-05-05T13:35:32.129Z,101826.50
2023-05-05T13:38:01.046Z,101825.50
2023-05-05T13:40:29.302Z,101836.06
2023-05-05T13:42:59.236Z,101833.34
2023-05-05T13:49:09.812Z,101840.41
2023-05-05T13:51:37.683Z,101834.97
2023-05-05T13:57:01.075Z,101838.78
2023-05-05T13:59:29.971Z,101836.25
2023-05-05T14:40:36.541Z,101763.06
2023-05-05T14:43:03.091Z,101769.19
2023-05-05T14:45:34.652Z,101748.69
2023-05-05T14:48:01.621Z,101741.41
2023-05-05T14:50:28.619Z,101737.94
2023-05-05T14:52:59.166Z,101746.88
2023-05-05T14:55:26.904Z,101759.69
2023-05-05T14:57:59.009Z,101770.16
2023-05-05T15:00:30.296Z,101784.72
2023-05-05T15:03:03.876Z,101787.44
2023-05-05T15:05:38.132Z,101782.69
2023-05-05T15:08:06.751Z,101781.69
2023-05-05T15:10:33.557Z,101783.94
2023-05-05T15:13:04.182Z,101785.47
2023-05-05T15:15:31.291Z,101782.38
2023-05-05T15:17:58.651Z,101781.69
2023-05-05T15:20:25.584Z,101778.59
2023-05-05T15:23:02.601Z,101776.13
2023-05-05T15:25:31.193Z,101777.84
2023-05-05T15:28:00.783Z,101767.16
2023-05-05T15:30:36.630Z,101768.25
2023-05-05T15:44:33.179Z,101753.91
2023-05-05T15:47:00.151Z,101751.69
2023-05-05T15:49:35.313Z,101749.31
2023-05-05T15:52:02.640Z,101753.13
2023-05-05T15:54:31.215Z,101751.94
2023-05-05T16:12:04.193Z,101747.84
2023-05-05T16:14:36.713Z,101742.81
2023-05-05T16:17:03.330Z,101745.91
2023-05-05T16:23:04.531Z,101744.00
2023-05-05T16:25:31.030Z,101740.28
2023-05-05T16:30:55.668Z,101734.78
2023-05-05T16:33:33.894Z,101726.66
2023-05-05T16:36:03.558Z,101725.63
2023-05-05T16:38:52.237Z,101730.25
2023-05-05T16:41:26.136Z,101730.97
2023-05-05T16:43:59.957Z,101731.66
2023-05-05T16:46:27.234Z,101725.38
2023-05-05T16:48:54.600Z,101723.16
2023-05-05T16:51:41.884Z,101718.72
2023-05-05T16:54:09.311Z,101726.25
2023-05-05T16:56:36.130Z,101725.38
2023-05-05T16:59:05.271Z,101722.66
2023-05-05T17:01:35.279Z,101728.47
2023-05-05T17:04:06.131Z,101730.31
2023-05-05T17:06:39.004Z,101735.94
2023-05-05T17:09:08.742Z,101729.97
2023-05-05T17:21:15.858Z,101731.00
2023-05-05T17:23:42.585Z,101731.50
2023-05-05T17:26:09.752Z,101735.22
2023-05-05T17:28:36.768Z,101739.16
2023-05-05T17:31:03.504Z,101742.72
2023-05-05T17:33:30.860Z,101747.84
2023-05-05T17:36:01.051Z,101731.84
2023-05-05T17:38:27.940Z,101731.00
2023-05-05T17:41:02.432Z,101728.97
2023-05-05T17:43:29.628Z,101736.44
2023-05-05T17:46:00.241Z,101742.03
2023-05-05T17:48:33.449Z,101741.03
2023-05-05T17:51:05.881Z,101741.69
2023-05-05T17:53:35.136Z,101739.97
2023-05-05T17:56:03.148Z,101739.63
2023-05-05T18:04:42.201Z,101753.53
2023-05-05T18:07:08.787Z,101756.28
2023-05-05T18:09:36.057Z,101752.84
2023-05-05T18:12:03.628Z,101755.75
2023-05-05T18:14:30.375Z,101757.25
2023-05-05T18:16:56.697Z,101759.13
2023-05-05T18:19:23.792Z,101754.53
2023-05-05T18:21:52.428Z,101758.09
2023-05-05T18:24:20.473Z,101751.56
2023-05-05T18:26:50.060Z,101746.47
2023-05-05T18:29:17.855Z,101747.31
2023-05-05T18:31:53.054Z,101751.38
2023-05-05T18:34:20.623Z,101753.91
2023-05-05T18:36:47.796Z,101760.50
2023-05-05T18:39:14.739Z,101760.69
2023-05-05T18:41:41.195Z,101761.13
2023-05-05T18:44:07.841Z,101763.75
2023-05-05T18:46:34.370Z,101760.84
2023-05-05T18:49:00.903Z,101767.75
2023-05-05T18:51:28.131Z,101768.56
2023-05-05T18:53:54.787Z,101764.09
2023-05-05T18:56:21.680Z,101764.88
2023-05-05T18:58:48.625Z,101765.47
2023-05-05T19:01:16.047Z,101755.09
2023-05-05T19:03:45.787Z,101767.13
2023-05-05T19:06:12.305Z,101763.72
2023-05-05T19:08:38.842Z,101764.56
2023-05-05T19:11:05.286Z,101771.97
2023-05-05T19:13:31.747Z,101774.47
2023-05-05T19:15:58.339Z,101780.50
2023-05-05T19:18:25.165Z,101780.97
2023-05-05T19:20:51.577Z,101778.03
2023-05-05T19:23:17.977Z,101776.94
2023-05-05T19:25:44.464Z,101788.41
2023-05-05T19:28:11.236Z,101786.47
2023-05-05T19:30:37.735Z,101791.50
2023-05-05T19:33:04.358Z,101798.53
2023-05-05T19:35:31.321Z,101793.16
2023-05-05T19:37:57.781Z,101802.16
2023-05-05T19:40:24.217Z,101803.41
2023-05-05T19:42:50.629Z,101804.00
2023-05-05T19:45:17.218Z,101806.84
2023-05-05T19:47:43.671Z,101801.16
2023-05-05T19:50:26.227Z,101799.25
2023-05-05T19:52:54.470Z,101805.09
2023-05-05T19:55:21.937Z,101804.56
2023-05-05T19:57:48.352Z,101804.56
2023-05-05T20:00:15.001Z,101808.13
2023-05-05T20:02:41.849Z,101812.28
2023-05-05T20:05:09.890Z,101812.06
2023-05-05T20:07:36.311Z,101807.63
2023-05-05T20:10:05.187Z,101809.72
2023-05-05T20:12:31.578Z,101812.84
2023-05-05T20:14:58.173Z,101818.25
2023-05-05T20:17:33.501Z,101804.00
2023-05-05T20:20:00.044Z,101818.16
2023-05-05T20:22:28.839Z,101808.63
2023-05-05T20:24:55.142Z,101810.78
2023-05-05T20:27:21.525Z,101813.00
2023-05-05T20:29:48.202Z,101812.47
2023-05-05T20:32:15.725Z,101809.94
2023-05-05T20:34:42.171Z,101821.38
2023-05-05T20:37:08.698Z,101823.84
2023-05-05T20:39:35.484Z,101828.97
2023-05-05T20:42:02.585Z,101822.44
2023-05-05T20:44:28.916Z,101821.84
2023-05-05T20:46:55.466Z,101826.84
2023-05-05T20:49:21.924Z,101820.59
2023-05-05T20:51:48.284Z,101819.16
2023-05-05T20:54:14.711Z,101820.63
2023-05-05T20:56:41.149Z,101817.06
2023-05-05T20:59:07.484Z,101807.50
2023-05-05T21:01:34.533Z,101802.53
2023-05-05T21:04:01.421Z,101805.50
2023-05-05T21:06:27.805Z,101809.78
2023-05-05T21:08:54.205Z,101814.47
2023-05-05T21:11:21.369Z,101812.16
2023-05-05T21:13:47.838Z,101817.88
2023-05-05T21:16:14.266Z,101805.47
2023-05-05T21:18:40.760Z,101815.88
2023-05-05T21:21:07.363Z,101812.47
2023-05-05T21:23:33.794Z,101810.03
2023-05-05T21:26:02.299Z,101806.75
2023-05-05T21:28:28.808Z,101812.78
2023-05-05T21:31:19.644Z,101815.03
2023-05-05T21:33:41.486Z,101806.31
2023-05-05T21:36:08.246Z,101809.47
2023-05-05T21:38:34.624Z,101812.47
2023-05-05T21:41:01.050Z,101813.75
2023-05-05T21:43:30.795Z,101808.63
2023-05-05T21:46:04.726Z,101809.44
2023-05-05T21:48:31.750Z,101809.31
2023-05-05T21:50:58.155Z,101811.16
2023-05-05T21:53:24.531Z,101807.03
2023-05-05T21:55:51.470Z,101808.00
2023-05-05T21:58:17.925Z,101806.16
2023-05-05T22:00:44.963Z,101806.75
2023-05-05T22:03:11.646Z,101806.91
2023-05-05T22:05:38.379Z,101804.63
2023-05-05T22:08:04.875Z,101799.75
2023-05-05T22:10:31.333Z,101804.59
2023-05-05T22:12:58.143Z,101797.59
2023-05-05T22:15:27.617Z,101798.88
2023-05-05T22:17:56.560Z,101804.28
2023-05-05T22:20:26.092Z,101803.72
2023-05-05T22:22:52.498Z,101806.72
2023-05-05T22:25:18.955Z,101808.97
2023-05-05T22:27:45.538Z,101815.38
2023-05-05T22:30:12.566Z,101808.97
2023-05-05T22:32:39.853Z,101809.97
2023-05-05T22:35:07.237Z,101804.22
2023-05-05T22:37:33.649Z,101799.97
2023-05-05T22:39:59.973Z,101802.81
2023-05-05T22:42:26.701Z,101801.13
2023-05-05T22:44:53.339Z,101808.81
2023-05-05T22:47:19.804Z,101805.28
2023-05-05T22:49:46.402Z,101805.28
2023-05-05T22:52:12.975Z,101805.09
2023-05-05T22:54:42.074Z,101800.09
2023-05-05T22:57:08.412Z,101801.69
2023-05-05T22:59:34.777Z,101801.41
2023-05-05T23:02:01.179Z,101799.88
2023-05-05T23:04:27.624Z,101795.03
2023-05-05T23:06:53.997Z,101797.72
2023-05-05T23:09:23.608Z,101803.44
2023-05-05T23:11:49.994Z,101799.88
2023-05-05T23:14:19.210Z,101800.00
2023-05-05T23:16:46.192Z,101797.00
2023-05-05T23:19:13.594Z,101796.31
2023-05-05T23:21:52.194Z,101800.56
2023-05-05T23:24:19.951Z,101799.00
2023-05-05T23:26:46.403Z,101793.72
2023-05-05T23:29:12.779Z,101793.72
2023-05-05T23:31:39.114Z,101794.72
2023-05-05T23:34:05.586Z,101778.47
2023-05-05T23:36:31.936Z,101788.31
2023-05-05T23:38:58.362Z,101791.03
2023-05-05T23:41:27.677Z,101792.00
2023-05-05T23:43:54.086Z,101795.00
2023-05-05T23:46:20.652Z,101781.47
2023-05-05T23:48:47.160Z,101787.59
2023-05-05T23:51:13.489Z,101787.59
2023-05-05T23:53:39.888Z,101790.28
2023-05-05T23:56:06.891Z,101786.59
2023-05-05T23:58:33.281Z,101777.63
